Time;durP1;ratioP1;P1;durP2;ratioP2;P2;SDS_P1;SDS_P2;PMS_P1;PMS_P2;Temp;Humidity;BMP_temperature;BMP_pressure;BME280_temperature;BME280_humidity;BME280_pressure;Samples;Min_cycle;Max_cycle;Signal;HPM_P1;HPM_P2
2024/03/13 00:00:10;;;;;;;40.10;27.90;;;;;;;1.55;80.32;100869.17;106283;1307;24247;-56
2024/03/13 00:02:41;;;;;;;40.90;28.70;;;;;;;1.53;80.51;100867.26;106378;1311;23696;-56
2024/03/13 00:05:10;;;;;;;43.30;29.70;;;;;;;1.52;80.37;100870.45;106156;1305;22651;-58
2024/03/13 00:07:39;;;;;;;48.30;29.10;;;;;;;1.51;80.32;100875.19;106406;1288;22564;-58
2024/03/13 00:10:06;;;;;;;53.00;32.30;;;;;;;1.50;80.38;100877.55;106362;1307;23044;-56
2024/03/13 00:26:57;;;;;;;53.10;33.90;;;;;;;1.86;81.08;100871.24;103900;1292;562493;-60
2024/03/13 00:29:26;;;;;;;57.30;34.30;;;;;;;1.95;81.79;100875.89;103753;1305;229190;-60
2024/03/13 00:31:52;;;;;;;54.30;33.70;;;;;;;1.96;82.54;100877.79;104018;1299;23285;-59
2024/03/13 00:34:18;;;;;;;50.50;31.30;;;;;;;2.01;81.82;100875.52;104084;1304;22533;-61
2024/03/13 00:36:43;;;;;;;46.70;31.00;;;;;;;2.05;81.60;100876.10;104051;1286;22577;-61
2024/03/13 00:39:10;;;;;;;56.50;33.90;;;;;;;2.09;81.67;100875.33;103759;1305;22680;-59
2024/03/13 00:41:38;;;;;;;50.50;33.00;;;;;;;2.12;81.60;100874.52;106161;1303;24455;-61
2024/03/13 00:44:05;;;;;;;57.50;34.40;;;;;;;2.13;81.71;100872.19;104741;1298;22551;-61
2024/03/13 00:46:31;;;;;;;56.40;32.40;;;;;;;2.15;81.70;100873.23;107975;1286;22313;-61
2024/03/13 00:48:57;;;;;;;67.70;37.50;;;;;;;2.17;81.91;100871.92;105663;1305;24722;-59
2024/03/13 00:51:23;;;;;;;67.00;37.80;;;;;;;2.22;81.89;100873.23;104210;1304;23725;-60
2024/03/13 00:53:49;;;;;;;65.60;35.20;;;;;;;2.26;81.95;100872.98;104193;1294;22568;-58
2024/03/13 00:56:15;;;;;;;54.50;34.90;;;;;;;2.29;81.97;100871.67;103995;1295;26607;-60
2024/03/13 00:58:42;;;;;;;62.70;36.60;;;;;;;2.34;82.02;100869.41;103950;1305;22971;-61
2024/03/13 01:01:11;;;;;;;63.80;35.90;;;;;;;2.37;81.96;100868.28;103850;1305;22652;-60
2024/03/13 01:03:38;;;;;;;62.20;36.30;;;;;;;2.40;81.99;100867.84;104080;1304;22543;-60
2024/03/13 01:06:05;;;;;;;62.80;34.60;;;;;;;2.43;82.25;100871.13;104085;1288;22969;-58
2024/03/13 01:08:33;;;;;;;56.80;35.10;;;;;;;2.45;82.72;100872.38;108201;1304;22273;-61
2024/03/13 01:11:00;;;;;;;59.50;34.80;;;;;;;2.46;82.54;100870.35;103388;1293;5003444;-59
2024/03/13 01:13:27;;;;;;;59.60;34.20;;;;;;;2.49;82.34;100871.10;107595;1307;22237;-62
2024/03/13 01:15:52;;;;;;;55.00;33.40;;;;;;;2.53;82.35;100866.77;107698;1285;22263;-62
2024/03/13 01:18:19;;;;;;;53.50;32.70;;;;;;;2.57;82.40;100866.84;106376;1307;26559;-60
2024/03/13 01:20:47;;;;;;;58.40;33.20;;;;;;;2.62;82.36;100870.65;103757;1307;22557;-60
2024/03/13 01:23:13;;;;;;;59.00;34.50;;;;;;;2.67;82.39;100868.72;106452;1307;22624;-60
2024/03/13 01:25:40;;;;;;;63.10;34.00;;;;;;;2.72;82.45;100870.69;103818;1307;22546;-59
2024/03/13 01:28:06;;;;;;;58.50;32.80;;;;;;;2.78;82.55;100868.59;104438;1294;22560;-61
2024/03/13 01:30:32;;;;;;;57.50;32.30;;;;;;;2.82;82.65;100872.24;103730;1308;22552;-61
2024/03/13 01:32:57;;;;;;;53.40;30.50;;;;;;;2.82;83.32;100873.42;103811;1308;22549;-62
2024/03/13 01:35:23;;;;;;;49.20;29.20;;;;;;;2.83;82.89;100872.78;103726;1308;22546;-60
2024/03/13 01:37:56;;;;;;;56.60;32.80;;;;;;;2.86;82.83;100873.02;103781;1298;23944;-58
2024/03/13 01:57:31;;;;;;;57.40;32.30;;;;;;;3.07;83.10;100872.73;106140;1289;27604;-61
2024/03/13 02:02:44;;;;;;;55.60;31.60;;;;;;;3.18;83.32;100877.48;103803;1307;22580;-62
2024/03/13 02:05:10;;;;;;;53.70;31.40;;;;;;;3.21;83.18;100875.86;103793;1307;22560;-61
2024/03/13 02:07:35;;;;;;;53.10;31.80;;;;;;;3.23;83.17;100877.25;103748;1295;23973;-61
2024/03/13 02:10:04;;;;;;;60.80;32.60;;;;;;;3.24;83.06;100876.42;103775;1308;22548;-60
2024/03/13 02:12:30;;;;;;;58.50;32.70;;;;;;;3.24;83.26;100877.45;107740;1308;22312;-62
2024/03/13 02:14:55;;;;;;;59.50;33.20;;;;;;;3.24;83.20;100876.25;107774;1308;22269;-61
2024/03/13 02:17:21;;;;;;;53.40;31.70;;;;;;;3.28;83.04;100874.45;107093;1308;22913;-57
2024/03/13 02:19:48;;;;;;;62.10;34.90;;;;;;;3.32;83.04;100871.11;103825;1298;25510;-62
2024/03/13 02:22:14;;;;;;;56.20;33.30;;;;;;;3.37;83.27;100873.58;107757;1304;22414;-61
2024/03/13 02:24:40;;;;;;;56.50;33.90;;;;;;;3.41;83.34;100870.41;107736;1303;22248;-61
2024/03/13 02:27:10;;;;;;;54.20;33.00;;;;;;;3.46;83.51;100871.35;106614;1294;24234;-60
2024/03/13 02:29:38;;;;;;;65.10;34.70;;;;;;;3.51;83.53;100872.64;103769;1291;22734;-62
2024/03/13 02:32:04;;;;;;;54.80;31.00;;;;;;;3.56;84.01;100877.48;107649;1302;22398;-59
2024/03/13 02:34:30;;;;;;;57.80;31.10;;;;;;;3.59;85.18;100875.16;104110;1302;22607;-60
2024/03/13 02:36:56;;;;;;;51.70;30.20;;;;;;;3.62;84.17;100877.93;103710;1308;22774;-61
2024/03/13 02:39:23;;;;;;;53.00;30.90;;;;;;;3.66;83.89;100876.60;103789;1308;22722;-61
2024/03/13 02:41:49;;;;;;;57.60;31.00;;;;;;;3.69;83.82;100877.51;103816;1307;22819;-60
2024/03/13 02:44:15;;;;;;;52.40;29.90;;;;;;;3.71;83.83;100878.05;103836;1307;22570;-60
2024/03/13 02:46:43;;;;;;;53.60;31.00;;;;;;;3.73;83.96;100880.65;103808;1301;25446;-61
2024/03/13 02:49:09;;;;;;;54.40;31.00;;;;;;;3.75;83.90;100880.85;103821;1292;22589;-59
2024/03/13 02:51:35;;;;;;;47.90;30.60;;;;;;;3.77;83.89;100881.05;106335;1295;22718;-61
2024/03/13 02:54:00;;;;;;;57.20;31.20;;;;;;;3.80;83.91;100882.63;103629;1305;22563;-59
2024/03/13 02:56:26;;;;;;;57.90;32.60;;;;;;;3.83;83.95;100886.43;103747;1305;22551;-59
2024/03/13 02:58:52;;;;;;;51.70;30.10;;;;;;;3.85;83.98;100884.08;103787;1289;25478;-61
2024/03/13 03:01:18;;;;;;;51.30;32.10;;;;;;;3.87;83.90;100885.29;103816;1307;22554;-61
2024/03/13 03:03:44;;;;;;;53.50;31.30;;;;;;;3.88;83.95;100881.05;103816;1307;22724;-61
2024/03/13 03:06:09;;;;;;;49.60;28.10;;;;;;;3.88;83.96;100884.46;103754;1307;26672;-61
2024/03/13 03:08:40;;;;;;;50.20;30.30;;;;;;;3.87;83.74;100883.59;103792;1285;22550;-61
2024/03/13 03:11:06;;;;;;;55.30;34.10;;;;;;;3.86;83.74;100882.90;103574;1309;22697;-60
2024/03/13 03:13:32;;;;;;;52.70;30.10;;;;;;;3.87;84.09;100888.36;103698;1308;25362;-59
2024/03/13 03:15:59;;;;;;;54.70;29.80;;;;;;;3.88;84.13;100887.02;103682;1308;22691;-61
2024/03/13 03:18:26;;;;;;;50.50;30.50;;;;;;;3.89;84.18;100886.02;103783;1308;27753;-59
2024/03/13 03:20:52;;;;;;;;;;;;;;;3.91;84.25;100888.94;107758;1299;22383;-62
2024/03/13 03:23:18;;;;;;;48.60;27.90;;;;;;;3.91;86.11;100888.08;107869;1302;22403;-60
2024/03/13 03:25:44;;;;;;;50.40;29.50;;;;;;;3.89;84.74;100887.54;104645;1305;23920;-61
2024/03/13 03:28:13;;;;;;;49.70;28.30;;;;;;;3.90;84.26;100892.84;103852;1305;25464;-59
2024/03/13 03:30:42;;;;;;;51.80;29.10;;;;;;;3.89;84.32;100893.70;107467;1291;22245;-62
2024/03/13 03:33:15;;;;;;;50.00;30.30;;;;;;;3.91;84.42;100887.75;103737;1308;22603;-61
2024/03/13 03:35:43;;;;;;;46.50;30.80;;;;;;;3.95;84.41;100886.77;104640;1308;22849;-61
2024/03/13 03:38:08;;;;;;;46.20;29.40;;;;;;;3.99;84.45;100893.16;107667;1308;22200;-62
2024/03/13 03:40:34;;;;;;;48.40;29.20;;;;;;;4.03;84.52;100888.61;107797;1288;23104;-59
2024/03/13 03:43:00;;;;;;;47.20;29.10;;;;;;;4.06;84.54;100886.77;107724;1295;22386;-62
2024/03/13 03:45:29;;;;;;;45.20;28.00;;;;;;;4.11;84.56;100888.21;107831;1307;22271;-61
2024/03/13 03:47:55;;;;;;;42.90;26.70;;;;;;;4.13;84.51;100890.13;107743;1301;22228;-61
2024/03/13 03:50:20;;;;;;;46.40;28.70;;;;;;;4.17;84.54;100892.21;107675;1288;23001;-62
2024/03/13 03:52:47;;;;;;;44.60;28.20;;;;;;;4.21;84.70;100896.52;107687;1305;22255;-62
2024/03/13 03:55:14;;;;;;;44.70;27.10;;;;;;;4.24;84.70;100894.70;105305;1304;25326;-62
2024/03/13 03:57:40;;;;;;;40.50;26.80;;;;;;;4.28;84.67;100897.65;107644;1298;22427;-61
2024/03/13 04:00:11;;;;;;;43.00;26.80;;;;;;;4.31;84.69;100899.06;103841;1287;22553;-60
2024/03/13 04:02:42;;;;;;;47.70;27.90;;;;;;;4.34;84.76;100903.02;103897;1307;22628;-62
2024/03/13 04:05:08;;;;;;;39.10;25.80;;;;;;;4.36;84.70;100902.20;107021;1307;22566;-62
2024/03/13 04:07:39;;;;;;;41.80;27.70;;;;;;;4.38;84.74;100902.56;106020;1292;22558;-61
2024/03/13 04:10:05;;;;;;;46.00;26.90;;;;;;;4.39;84.74;100900.02;103744;1291;22562;-61
2024/03/13 04:12:32;;;;;;;45.30;26.30;;;;;;;4.40;84.57;100905.16;103759;1308;25729;-61
2024/03/13 04:14:57;;;;;;;41.50;26.40;;;;;;;4.31;84.56;100908.27;103723;1309;22583;-61
2024/03/13 04:17:23;;;;;;;42.60;25.50;;;;;;;4.27;84.61;100902.76;103654;1294;22576;-55
2024/03/13 04:19:49;;;;;;;47.30;27.30;;;;;;;4.26;84.82;100903.77;103635;1294;22568;-58
2024/03/13 04:22:15;;;;;;;49.60;28.30;;;;;;;4.28;84.89;100903.61;103832;1289;22536;-62
2024/03/13 04:24:41;;;;;;;46.10;28.00;;;;;;;4.29;84.99;100904.84;103825;1291;23717;-61
2024/03/13 04:27:06;;;;;;;44.50;26.80;;;;;;;4.32;84.86;100908.80;103790;1307;24355;-61
2024/03/13 04:29:32;;;;;;;43.20;25.80;;;;;;;4.29;88.02;100909.95;103781;1307;25279;-61
2024/03/13 04:31:57;;;;;;;41.40;25.80;;;;;;;4.23;86.77;100911.90;103656;1292;25493;-58
2024/03/13 04:34:23;;;;;;;49.10;26.60;;;;;;;4.23;85.85;100911.73;103720;1307;22498;-61
2024/03/13 04:36:49;;;;;;;41.60;27.30;;;;;;;4.26;85.65;100909.04;103692;1309;23067;-60
2024/03/13 04:39:16;;;;;;;42.60;27.30;;;;;;;4.27;85.48;100911.45;103746;1287;24365;-60
2024/03/13 04:41:42;;;;;;;44.70;27.10;;;;;;;4.25;86.21;100914.50;103808;1290;22576;-61
2024/03/13 04:44:10;;;;;;;44.40;26.20;;;;;;;4.22;85.21;100918.89;103739;1307;22556;-62
2024/03/13 04:46:37;;;;;;;40.90;26.10;;;;;;;4.18;85.36;100922.59;106924;1293;25496;-60
2024/03/13 04:49:03;;;;;;;37.80;25.10;;;;;;;4.19;85.35;100917.30;103831;1307;24258;-60
2024/03/13 04:51:29;;;;;;;46.80;27.10;;;;;;;4.21;85.38;100918.70;103670;1308;22638;-61
2024/03/13 04:53:55;;;;;;;42.60;26.40;;;;;;;4.21;85.41;100914.61;103729;1309;22566;-60
2024/03/13 04:56:20;;;;;;;40.40;26.20;;;;;;;4.24;85.38;100920.46;103761;1308;25186;-58
2024/03/13 04:58:46;;;;;;;44.70;25.80;;;;;;;4.24;85.39;100920.13;103750;1308;22622;-63
2024/03/13 05:01:18;;;;;;;45.80;27.40;;;;;;;4.25;85.39;100919.11;103810;1298;22536;-61
2024/03/13 05:03:44;;;;;;;40.10;26.20;;;;;;;4.27;85.50;100922.55;103755;1304;23216;-57
2024/03/13 05:06:10;;;;;;;40.30;24.70;;;;;;;4.28;85.44;100922.05;103793;1307;25350;-59
2024/03/13 05:08:35;;;;;;;44.60;26.40;;;;;;;4.27;85.29;100924.60;103848;1307;22685;-61
2024/03/13 05:11:01;;;;;;;45.80;25.80;;;;;;;4.27;85.33;100924.09;103651;1285;22751;-61
2024/03/13 05:13:27;;;;;;;43.10;26.80;;;;;;;4.27;85.39;100926.13;103639;1305;24394;-60
2024/03/13 05:15:52;;;;;;;45.70;29.80;;;;;;;4.28;85.49;100923.41;103727;1296;22578;-59
2024/03/13 05:18:21;;;;;;;46.00;28.30;;;;;;;4.29;85.48;100926.00;103767;1292;24515;-58
2024/03/13 05:20:46;;;;;;;38.10;25.20;;;;;;;4.29;85.09;100925.66;103777;1292;22687;-57
2024/03/13 05:23:12;;;;;;;34.90;24.20;;;;;;;4.25;85.50;100924.90;103841;1285;22672;-59
2024/03/13 05:25:38;;;;;;;45.10;25.70;;;;;;;4.21;85.11;100927.05;103820;1307;24235;-59
2024/03/13 05:28:03;;;;;;;49.20;27.80;;;;;;;4.17;84.95;100932.13;103716;1292;26030;-59
2024/03/13 05:30:30;;;;;;;38.30;25.00;;;;;;;4.14;85.38;100934.16;103829;1304;26726;-59
2024/03/13 05:32:56;;;;;;;46.00;27.10;;;;;;;4.13;85.66;100936.35;103659;1307;25144;-60
2024/03/13 05:35:23;;;;;;;39.80;26.70;;;;;;;4.12;85.65;100941.45;103548;1294;97048;-59
2024/03/13 05:37:49;;;;;;;46.80;27.80;;;;;;;4.14;85.83;100938.26;107581;1304;22229;-61
2024/03/13 05:40:17;;;;;;;38.30;25.00;;;;;;;4.19;85.98;100937.79;106113;1306;22731;-60
2024/03/13 05:42:43;;;;;;;48.50;29.70;;;;;;;4.24;86.00;100935.98;103772;1291;22566;-61
2024/03/13 05:45:15;;;;;;;49.50;29.50;;;;;;;4.29;85.90;100938.28;103616;1310;22575;-60
2024/03/13 05:47:41;;;;;;;50.00;28.90;;;;;;;4.35;85.94;100940.92;103483;1304;24943;-60
2024/03/13 05:50:07;;;;;;;42.10;28.40;;;;;;;4.40;85.92;100939.80;103334;1307;23424;-59
2024/03/13 05:52:33;;;;;;;46.50;28.80;;;;;;;4.43;85.97;100941.05;103455;1291;22573;-61
2024/03/13 05:55:01;;;;;;;45.80;29.40;;;;;;;4.46;86.46;100944.16;103410;1298;22605;-57
2024/03/13 05:57:27;;;;;;;48.50;29.10;;;;;;;4.49;86.34;100947.77;103626;1294;23398;-60
2024/03/13 05:59:54;;;;;;;54.60;29.90;;;;;;;4.50;86.15;100950.19;104112;1304;22529;-61
2024/03/13 06:02:20;;;;;;;48.50;27.90;;;;;;;4.47;86.27;100956.29;103854;1291;22595;-61
2024/03/13 06:04:46;;;;;;;40.20;25.90;;;;;;;4.46;89.79;100955.24;103267;1310;22565;-61
2024/03/13 06:07:11;;;;;;;47.50;29.60;;;;;;;4.43;88.67;100958.46;103362;1299;22670;-59
2024/03/13 06:09:37;;;;;;;49.10;29.30;;;;;;;4.46;88.04;100956.11;103302;1290;26657;-59
2024/03/13 06:12:03;;;;;;;50.00;30.10;;;;;;;4.49;88.72;100956.84;103665;1286;24272;-60
2024/03/13 06:14:29;;;;;;;56.20;31.30;;;;;;;4.52;87.52;100952.45;103586;1294;23965;-61
2024/03/13 06:16:55;;;;;;;47.10;29.40;;;;;;;4.56;87.30;100955.75;103639;1302;22573;-61
2024/03/13 06:19:21;;;;;;;47.50;29.00;;;;;;;4.57;86.66;100953.88;104344;1302;23478;-59
2024/03/13 06:21:46;;;;;;;56.50;31.20;;;;;;;4.60;86.74;100952.54;105034;1304;22512;-59
2024/03/13 06:24:12;;;;;;;46.40;26.30;;;;;;;4.62;86.58;100954.98;105526;1291;25440;-58
2024/03/13 06:26:45;;;;;;;50.60;28.90;;;;;;;4.61;87.61;100956.32;105339;1307;22560;-60
2024/03/13 06:31:55;;;;;;;48.60;28.70;;;;;;;4.65;87.03;100961.66;105443;1287;23903;-59
2024/03/13 06:34:23;;;;;;;48.70;30.50;;;;;;;4.72;87.03;100964.63;104082;1304;22555;-61
2024/03/13 06:36:48;;;;;;;54.70;30.60;;;;;;;4.79;87.01;100967.45;103696;1294;22559;-60
2024/03/13 07:04:04;;;;;;;53.90;29.70;;;;;;;4.89;87.10;100966.73;104614;1298;544846;-59
2024/03/13 07:06:29;;;;;;;57.00;32.30;;;;;;;4.83;87.04;100966.66;105049;1317;22556;-58
2024/03/13 07:08:55;;;;;;;58.00;31.90;;;;;;;4.83;87.19;100969.73;104616;1311;25453;-60
2024/03/13 07:11:20;;;;;;;52.80;31.80;;;;;;;4.86;87.16;100970.46;105078;1295;22595;-60
2024/03/13 07:13:46;;;;;;;61.20;34.00;;;;;;;4.90;87.72;100966.77;104823;1301;22764;-59
2024/03/13 07:16:13;;;;;;;54.70;33.20;;;;;;;4.93;87.29;100969.69;105437;1303;22516;-60
2024/03/13 07:18:39;;;;;;;54.70;31.40;;;;;;;4.98;87.24;100973.86;104959;1311;533711;-59
2024/03/13 07:21:04;;;;;;;53.50;32.70;;;;;;;5.06;87.19;100973.45;105368;1309;22568;-60
2024/03/13 07:23:30;;;;;;;55.30;33.60;;;;;;;5.13;87.24;100972.52;104932;1292;22611;-61
2024/03/13 07:25:56;;;;;;;56.80;32.50;;;;;;;5.18;87.23;100975.64;105626;1308;23200;-58
2024/03/13 07:28:21;;;;;;;57.20;33.20;;;;;;;5.24;87.68;100980.64;105478;1311;24228;-58
2024/03/13 07:30:50;;;;;;;56.90;33.10;;;;;;;5.32;87.52;100974.58;105405;1308;22729;-60
2024/03/13 07:33:16;;;;;;;58.20;35.00;;;;;;;5.44;87.64;100974.36;105411;1310;22679;-56
2024/03/13 07:35:42;;;;;;;64.30;36.50;;;;;;;5.54;87.67;100974.98;105639;1298;22639;-61
2024/03/13 07:38:09;;;;;;;65.50;38.70;;;;;;;5.65;87.51;100979.55;105500;1314;22590;-59
2024/03/13 07:40:40;;;;;;;69.70;39.60;;;;;;;5.75;87.51;100982.36;104966;1311;22692;-59
2024/03/13 07:43:08;;;;;;;64.70;38.00;;;;;;;5.84;87.56;100983.80;104104;1308;22852;-61
2024/03/13 07:45:42;;;;;;;69.50;40.00;;;;;;;5.92;87.54;100985.78;104910;1297;22632;-59
2024/03/13 07:48:08;;;;;;;65.00;38.70;;;;;;;6.03;87.46;100987.61;105240;1313;24189;-61
2024/03/13 07:50:41;;;;;;;67.60;38.60;;;;;;;6.14;87.54;100986.84;105297;1307;22715;-60
2024/03/13 07:53:08;;;;;;;76.30;42.90;;;;;;;6.23;87.50;100987.06;106422;1311;22573;-58
2024/03/13 07:55:36;;;;;;;76.30;40.90;;;;;;;6.32;87.48;100991.58;105529;1295;22604;-58
2024/03/13 07:58:03;;;;;;;67.00;38.80;;;;;;;6.43;87.69;100994.91;105234;1311;22556;-57
2024/03/13 08:00:31;;;;;;;70.50;38.20;;;;;;;6.54;87.91;100996.70;107309;1310;22595;-57
2024/03/13 08:02:57;;;;;;;70.40;39.10;;;;;;;6.56;88.77;100993.63;107308;1308;22517;-57
2024/03/13 08:05:23;;;;;;;63.50;39.40;;;;;;;6.53;87.97;100998.74;104598;1296;22615;-58
2024/03/13 08:07:49;;;;;;;66.00;39.50;;;;;;;6.54;88.05;101000.80;104707;1314;22655;-58
2024/03/13 08:10:21;;;;;;;70.30;39.00;;;;;;;6.54;88.28;101003.73;104837;1295;22654;-58
2024/03/13 08:12:46;;;;;;;66.00;40.00;;;;;;;6.50;88.60;101007.29;104444;1308;22511;-58
2024/03/13 08:15:12;;;;;;;77.70;42.50;;;;;;;6.53;88.39;101005.94;105017;1295;22579;-57
2024/03/13 08:17:38;;;;;;;74.10;41.40;;;;;;;6.60;88.32;101005.13;104860;1313;22566;-57
2024/03/13 08:20:05;;;;;;;75.80;42.30;;;;;;;6.76;88.45;101007.78;104893;1313;22715;-58
2024/03/13 08:22:31;;;;;;;75.30;42.70;;;;;;;6.87;88.19;101006.30;104835;1299;22714;-58
2024/03/13 08:24:58;;;;;;;71.80;40.90;;;;;;;6.96;88.21;101010.80;104968;1294;22596;-58
2024/03/13 08:27:24;;;;;;;76.90;41.40;;;;;;;7.07;88.25;101018.05;105155;1306;22521;-59
2024/03/13 08:29:50;;;;;;;70.50;41.80;;;;;;;7.19;88.17;101017.42;105028;1313;22668;-59
2024/03/13 08:32:15;;;;;;;71.20;40.20;;;;;;;7.26;88.00;101015.90;105224;1307;22743;-58
2024/03/13 08:34:43;;;;;;;68.60;38.00;;;;;;;7.36;88.24;101014.55;104989;1289;22904;-57
2024/03/13 08:37:10;;;;;;;64.50;37.70;;;;;;;7.49;88.39;101020.77;105113;1307;22521;-62
2024/03/13 08:39:36;;;;;;;66.00;38.40;;;;;;;7.49;88.12;101020.26;105644;1298;22663;-59
2024/03/13 08:42:02;;;;;;;65.80;38.20;;;;;;;7.48;88.19;101022.48;105688;1313;23144;-59
2024/03/13 08:47:20;;;;;;;62.50;37.40;;;;;;;7.57;88.34;101023.54;104817;1294;23969;-86
2024/03/13 08:49:49;;;;;;;62.10;38.70;;;;;;;7.71;88.29;101025.80;105403;1307;22620;-61
2024/03/13 08:52:15;;;;;;;61.10;36.70;;;;;;;7.83;88.54;101020.48;105089;1309;22349;-60
2024/03/13 08:57:15;;;;;;;66.10;38.30;;;;;;;8.13;88.53;101021.38;105742;1294;83272;-61
2024/03/13 08:59:41;;;;;;;73.50;40.90;;;;;;;8.24;88.38;101022.42;106407;1311;22720;-60
2024/03/13 09:02:08;;;;;;;63.90;39.20;;;;;;;8.32;88.39;101025.85;105772;1311;22598;-61
2024/03/13 09:04:45;;;;;;;;;;;;;;;;;;;;;
2024/03/13 09:07:10;;;;;;;72.20;41.70;;;;;;;8.48;88.54;101034.44;107393;1294;22255;-61
2024/03/13 09:09:37;;;;;;;70.30;40.90;;;;;;;8.60;88.37;101035.11;107195;1299;22219;-62
2024/03/13 09:12:06;;;;;;;61.30;39.50;;;;;;;8.66;88.18;101035.80;107445;1304;22323;-61
2024/03/13 09:14:38;;;;;;;62.00;38.30;;;;;;;8.72;88.29;101039.22;107351;1311;22250;-62
2024/03/13 09:17:08;;;;;;;64.60;40.70;;;;;;;8.85;88.54;101039.35;107534;1289;22200;-61
2024/03/13 09:19:37;;;;;;;71.80;41.40;;;;;;;9.01;88.68;101035.52;107500;1311;22419;-61
2024/03/13 09:22:04;;;;;;;71.30;42.20;;;;;;;9.05;87.66;101036.02;107587;1308;22222;-61
2024/03/13 09:24:30;;;;;;;75.90;44.20;;;;;;;9.07;87.99;101041.86;107568;1312;22192;-61
2024/03/13 09:26:56;;;;;;;67.50;43.50;;;;;;;9.11;88.09;101041.86;107531;1289;22471;-61
2024/03/13 09:29:23;;;;;;;71.20;41.40;;;;;;;9.19;88.16;101041.83;107673;1312;22226;-60
2024/03/13 09:31:49;;;;;;;69.40;41.70;;;;;;;9.25;87.86;101046.28;107676;1312;22181;-61
2024/03/13 09:34:15;;;;;;;74.60;43.60;;;;;;;9.35;88.32;101045.88;107481;1302;22232;-61
2024/03/13 09:36:41;;;;;;;67.30;41.70;;;;;;;9.46;88.25;101046.17;107535;1312;22366;-61
2024/03/13 09:39:09;;;;;;;71.50;43.50;;;;;;;9.50;88.12;101046.66;107309;1304;22476;-61
2024/03/13 09:41:34;;;;;;;57.70;37.40;;;;;;;9.58;88.10;101050.24;107276;1308;22288;-60
2024/03/13 09:44:01;;;;;;;69.90;42.90;;;;;;;9.57;87.36;101053.86;107230;1305;22245;-61
2024/03/13 09:46:27;;;;;;;;;;;;;;;9.47;87.55;101055.28;107295;1305;25554;-61
2024/03/13 09:48:57;;;;;;;73.10;43.00;;;;;;;9.51;87.78;101055.27;107331;1302;22826;-60
2024/03/13 09:51:23;;;;;;;72.30;44.50;;;;;;;9.60;88.00;101057.46;107335;1307;23112;-60
2024/03/13 09:53:51;;;;;;;61.90;38.80;;;;;;;9.68;87.66;101057.77;107385;1308;22396;-60
2024/03/13 09:56:18;;;;;;;61.40;36.50;;;;;;;9.69;87.12;101060.16;107331;1311;22360;-60
2024/03/13 09:58:45;;;;;;;57.90;37.30;;;;;;;9.64;86.19;101062.27;107158;1295;22241;-61
2024/03/13 10:01:26;;;;;;;59.00;39.10;;;;;;;9.56;86.46;101061.27;107296;1312;23099;-60
2024/03/13 10:03:59;;;;;;;62.80;38.30;;;;;;;9.55;87.18;101060.92;107291;1305;22448;-61
2024/03/13 10:06:26;;;;;;;66.60;43.40;;;;;;;9.63;87.30;101062.78;107303;1311;22241;-61
2024/03/13 10:08:55;;;;;;;69.60;41.10;;;;;;;9.77;87.78;101062.37;107298;1293;23135;-60
2024/03/13 10:11:23;;;;;;;67.50;40.70;;;;;;;9.94;87.94;101062.94;107330;1311;22142;-59
2024/03/13 10:13:51;;;;;;;61.30;37.40;;;;;;;10.07;87.38;101063.54;107271;1313;22275;-60
2024/03/13 10:16:22;;;;;;;63.30;36.70;;;;;;;10.13;87.51;101065.58;107334;1304;22192;-60
2024/03/13 10:18:51;;;;;;;60.80;37.50;;;;;;;10.19;85.49;101066.75;107184;1305;22285;-60
2024/03/13 10:21:31;;;;;;;69.10;42.20;;;;;;;10.14;84.07;101067.98;107315;1311;22881;-61
2024/03/13 10:23:59;;;;;;;70.90;44.00;;;;;;;10.22;86.46;101068.46;107340;1308;22774;-60
2024/03/13 10:26:26;;;;;;;74.70;46.20;;;;;;;10.34;86.65;101068.20;107339;1312;22894;-60
2024/03/13 10:28:52;;;;;;;;;;;;;;;10.37;85.84;101067.31;107395;1289;22289;-61
2024/03/13 10:31:17;;;;;;;68.90;39.50;;;;;;;10.35;86.30;101068.02;107316;1312;22757;-60
2024/03/13 10:34:05;;;;;;;60.50;38.90;;;;;;;10.37;86.54;101068.19;107184;1312;22821;-60
2024/03/13 10:36:29;;;;;;;60.20;38.50;;;;;;;10.44;86.75;101069.30;107360;1312;23219;-60
2024/03/13 10:39:04;;;;;;;65.30;42.50;;;;;;;10.47;86.68;101071.86;107214;1295;22258;-61
2024/03/13 10:41:32;;;;;;;68.20;40.90;;;;;;;10.38;85.89;101070.41;107357;1297;22460;-61
2024/03/13 10:43:59;;;;;;;69.90;43.00;;;;;;;10.28;85.49;101069.61;107308;1304;22239;-61
2024/03/13 10:46:26;;;;;;;71.10;42.70;;;;;;;10.24;86.08;101072.23;107227;1311;22420;-61
2024/03/13 10:48:52;;;;;;;74.60;45.90;;;;;;;10.25;86.34;101072.23;107321;1313;22338;-61
2024/03/13 10:51:18;;;;;;;76.50;47.60;;;;;;;10.26;86.21;101069.98;107328;1311;22427;-61
2024/03/13 10:53:45;;;;;;;76.10;44.00;;;;;;;10.26;86.42;101070.15;107344;1298;22237;-60
2024/03/13 10:56:31;;;;;;;68.60;45.40;;;;;;;10.30;86.36;101067.72;107265;1308;22419;-60
2024/03/13 10:58:56;;;;;;;61.10;40.10;;;;;;;10.37;86.28;101063.70;107379;1289;22035;-61
2024/03/13 11:01:22;;;;;;;61.80;40.40;;;;;;;10.38;85.80;101059.54;107356;1305;22491;-59
2024/03/13 11:04:00;;;;;;;70.40;40.20;;;;;;;10.43;85.97;101056.71;107457;1307;22378;-61
2024/03/13 11:06:35;;;;;;;60.70;39.10;;;;;;;10.49;86.12;101056.33;107532;1305;22425;-62
2024/03/13 11:09:04;;;;;;;61.90;37.50;;;;;;;10.52;86.08;101053.55;107493;1289;22297;-61
2024/03/13 11:11:35;;;;;;;61.60;37.40;;;;;;;10.61;86.05;101053.64;107401;1304;22477;-61
2024/03/13 11:14:03;;;;;;;41.30;26.90;;;;;;;10.64;81.70;101055.16;100015;1305;10002317;-61
2024/03/13 11:16:32;;;;;;;37.40;24.30;;;;;;;10.56;82.69;101045.75;107341;1312;22393;-62
2024/03/13 11:19:01;;;;;;;38.00;24.90;;;;;;;10.67;82.65;101050.13;107526;1290;22278;-61
2024/03/13 11:21:56;;;;;;;34.00;23.70;;;;;;;10.74;83.84;101047.30;107479;1304;22370;-61
2024/03/13 11:24:34;;;;;;;36.20;23.70;;;;;;;10.84;84.50;101042.38;107552;1311;22255;-61
2024/03/13 11:27:10;;;;;;;37.00;24.60;;;;;;;10.82;82.69;101041.55;107341;1305;22458;-62
2024/03/13 11:29:43;;;;;;;34.70;24.60;;;;;;;10.83;83.12;101040.16;107453;1289;22271;-61
2024/03/13 11:32:15;;;;;;;38.90;25.90;;;;;;;10.95;83.23;101038.97;107503;1305;22930;-62
2024/03/13 11:35:05;;;;;;;32.90;23.60;;;;;;;10.95;78.79;101040.70;107242;1312;22594;-61
2024/03/13 11:37:34;;;;;;;33.20;22.40;;;;;;;10.77;79.34;101033.14;107524;1312;22402;-61
2024/03/13 11:40:00;;;;;;;32.90;22.20;;;;;;;10.78;79.03;101030.03;107511;1305;22346;-61
2024/03/13 11:42:32;;;;;;;30.20;21.70;;;;;;;10.80;80.45;101029.31;107385;1307;22731;-61
2024/03/13 11:45:21;;;;;;;31.50;21.90;;;;;;;10.95;79.66;101029.13;107438;1312;22372;-61
2024/03/13 11:47:47;;;;;;;37.30;23.90;;;;;;;10.94;77.08;101028.29;107513;1305;22236;-61
2024/03/13 11:50:13;;;;;;;32.20;22.90;;;;;;;10.89;78.27;101028.02;107472;1296;22345;-62
2024/03/13 11:53:01;;;;;;;37.90;23.70;;;;;;;11.04;80.61;101026.98;107348;1310;22832;-61
2024/03/13 11:55:31;;;;;;;30.30;20.50;;;;;;;11.41;80.14;101025.47;107359;1307;22353;-61
2024/03/13 11:58:22;;;;;;;34.30;22.30;;;;;;;11.58;79.28;101023.51;107512;1304;22124;-61
2024/03/13 12:00:51;;;;;;;33.50;22.70;;;;;;;11.69;78.44;101019.90;106209;1293;22577;-61
2024/03/13 12:03:19;;;;;;;27.90;21.20;;;;;;;11.67;77.24;101021.32;106173;1307;22885;-61
2024/03/13 12:05:45;;;;;;;30.90;21.20;;;;;;;11.85;81.06;101019.34;106048;1312;23050;-61
2024/03/13 12:08:18;;;;;;;27.10;20.00;;;;;;;12.07;79.98;101020.20;106004;1311;22542;-62
2024/03/13 12:10:56;;;;;;;30.90;21.30;;;;;;;12.13;77.84;101021.16;106122;1296;22600;-61
2024/03/13 12:13:31;;;;;;;28.50;20.10;;;;;;;12.07;76.45;101018.98;106322;1305;22569;-61
2024/03/13 12:15:59;;;;;;;29.50;21.90;;;;;;;11.84;75.82;101021.62;106175;1307;22555;-61
2024/03/13 12:18:29;;;;;;;25.70;21.10;;;;;;;11.68;76.78;101018.70;106203;1305;22571;-62